MU53 weather

Twin Rivers Regional Medical Center Heliport
Kennett, Missouri, United States

Public forecast

Using degrees Fahrenheit for public forecast. Weather courtesy of forecast.io.

METAR (pilot weather report)

Closest report is Kennett Memorial Airport, 0.6 nm (1.2 km) SSE. Retrieved 2019/05/19 12:15 UTC (0 seconds ago):

KTKX 191215Z AUTO 27004KT 1 1/4SM -RA BKN003 BKN030 OVC038 19/19 A2981 RMK AO2

TAF (pilot weather forecast)

Closest forecast is Jonesboro Municipal Airport, 38.1 nm (70.6 km) SW. Retrieved 2019/05/19 12:42 UTC (0 seconds ago):

TAF KJBR 191141Z 1912/2012 21012G20KT P6SM VCSH BKN040 OVC100 WS020/20045KT TEMPO 1912/1914 -SHRA OVC015 FM191800 21012G20KT P6SM VCTS BKN025CB OVC060 FM192200 30004KT P6SM SCT250